createdAt,value
2019-05-09T00:01:14.321Z,13.90
2019-05-09T00:03:44.336Z,13.80
2019-05-09T00:06:13.735Z,13.70
2019-05-09T00:08:44.133Z,13.70
2019-05-09T00:11:14.413Z,13.80
2019-05-09T00:13:43.921Z,13.90
2019-05-09T00:16:14.492Z,13.90
2019-05-09T00:18:44.214Z,13.90
2019-05-09T00:21:14.891Z,13.90
2019-05-09T00:23:43.861Z,13.90
2019-05-09T00:26:13.452Z,13.90
2019-05-09T00:28:44.476Z,13.80
2019-05-09T00:31:14.943Z,13.80
2019-05-09T00:33:48.036Z,13.70
2019-05-09T00:36:16.176Z,13.70
2019-05-09T00:38:45.980Z,13.70
2019-05-09T00:41:14.829Z,13.70
2019-05-09T00:43:45.319Z,13.70
2019-05-09T00:46:15.878Z,13.70
2019-05-09T00:48:46.317Z,13.70
2019-05-09T00:51:15.149Z,13.50
2019-05-09T00:53:44.440Z,13.60
2019-05-09T00:56:13.537Z,13.60
2019-05-09T00:58:44.088Z,13.80
2019-05-09T01:01:14.823Z,13.90
2019-05-09T01:03:43.654Z,13.90
2019-05-09T01:06:13.425Z,13.90
2019-05-09T01:08:44.226Z,13.90
2019-05-09T01:11:15.582Z,14.00
2019-05-09T01:13:44.021Z,13.90
2019-05-09T01:16:13.404Z,14.00
2019-05-09T01:18:43.733Z,14.30
2019-05-09T01:21:13.430Z,14.40
2019-05-09T01:23:43.665Z,14.50
2019-05-09T01:26:13.317Z,14.60
2019-05-09T01:28:44.237Z,14.50
2019-05-09T01:31:13.351Z,14.50
2019-05-09T01:33:44.020Z,14.40
2019-05-09T01:36:14.401Z,14.20
2019-05-09T01:38:43.498Z,14.10
2019-05-09T01:41:24.742Z,14.10
2019-05-09T01:43:44.294Z,14.10
2019-05-09T01:46:14.456Z,14.00
2019-05-09T01:48:43.507Z,13.80
2019-05-09T01:51:13.885Z,13.90
2019-05-09T01:53:44.626Z,13.90
2019-05-09T01:56:13.988Z,13.90
2019-05-09T01:58:43.147Z,13.90
2019-05-09T02:01:13.480Z,13.90
2019-05-09T02:03:44.319Z,14.10
2019-05-09T02:06:13.659Z,14.00
2019-05-09T02:08:43.793Z,14.00
2019-05-09T02:11:13.423Z,14.00
2019-05-09T02:13:44.199Z,13.80
2019-05-09T02:16:17.506Z,13.80
2019-05-09T02:18:50.766Z,13.80
2019-05-09T02:21:19.539Z,13.80
2019-05-09T02:23:48.280Z,13.70
2019-05-09T02:26:17.092Z,13.80
2019-05-09T02:28:47.414Z,13.70
2019-05-09T02:31:16.691Z,13.70
2019-05-09T02:33:46.035Z,13.60
2019-05-09T02:36:14.924Z,13.60
2019-05-09T02:38:43.762Z,13.80
2019-05-09T02:41:13.166Z,13.80
2019-05-09T02:43:42.000Z,13.70
2019-05-09T02:46:18.411Z,13.70
2019-05-09T02:48:49.227Z,13.60
2019-05-09T02:51:18.551Z,13.70
2019-05-09T02:53:48.599Z,13.60
2019-05-09T02:56:18.839Z,13.60
2019-05-09T02:58:55.154Z,13.50
2019-05-09T03:01:25.628Z,13.40
2019-05-09T03:03:54.452Z,13.50
2019-05-09T03:06:23.277Z,13.50
2019-05-09T03:08:52.127Z,13.60
2019-05-09T03:11:20.937Z,13.70
2019-05-09T03:13:49.802Z,13.80
2019-05-09T03:16:19.253Z,13.80
2019-05-09T03:18:49.456Z,13.70
2019-05-09T03:21:20.196Z,13.70
2019-05-09T03:23:49.111Z,13.90
2019-05-09T03:26:19.755Z,13.90
2019-05-09T03:28:59.131Z,13.80
2019-05-09T03:31:30.967Z,13.80
2019-05-09T03:33:59.922Z,13.70
2019-05-09T03:36:28.916Z,13.80
2019-05-09T03:38:57.911Z,13.60
2019-05-09T03:41:28.257Z,13.60
2019-05-09T03:43:58.623Z,13.60
2019-05-09T03:46:29.341Z,13.40
2019-05-09T03:49:09.857Z,13.40
2019-05-09T03:51:39.829Z,13.50
2019-05-09T03:54:08.667Z,13.50
2019-05-09T03:56:41.860Z,13.50
2019-05-09T03:59:10.611Z,13.50
2019-05-09T04:01:39.463Z,13.50
2019-05-09T04:04:08.900Z,13.50
2019-05-09T04:06:39.191Z,13.40
2019-05-09T04:09:08.871Z,13.40
2019-05-09T04:11:38.187Z,13.50
2019-05-09T04:14:14.391Z,13.50
2019-05-09T04:16:44.558Z,13.50
2019-05-09T04:19:13.391Z,13.50
2019-05-09T04:21:42.296Z,13.40
2019-05-09T04:24:11.184Z,13.50
2019-05-09T04:26:53.557Z,13.50
2019-05-09T04:29:22.321Z,13.50
2019-05-09T04:31:51.165Z,13.60
2019-05-09T04:34:19.927Z,13.60
2019-05-09T04:36:48.680Z,13.60
2019-05-09T04:39:21.873Z,13.70
2019-05-09T04:41:48.630Z,14.00
2019-05-09T04:44:22.317Z,14.30
2019-05-09T04:46:54.034Z,14.30
2019-05-09T04:49:21.761Z,14.50
2019-05-09T04:51:50.673Z,14.50
2019-05-09T04:54:19.583Z,14.60
2019-05-09T04:56:49.498Z,14.60
2019-05-09T04:59:18.433Z,14.50
2019-05-09T05:01:51.451Z,14.40
2019-05-09T05:04:22.070Z,14.80
2019-05-09T05:06:51.028Z,14.90
2019-05-09T05:09:21.393Z,15.00
2019-05-09T05:11:50.637Z,15.00
2019-05-09T05:14:25.289Z,15.10
2019-05-09T05:17:04.337Z,15.40
2019-05-09T05:19:31.360Z,15.50
2019-05-09T05:22:00.818Z,15.70
2019-05-09T05:24:38.152Z,15.80
2019-05-09T05:27:08.243Z,15.90
2019-05-09T05:29:38.338Z,15.80
2019-05-09T05:32:09.382Z,15.60
2019-05-09T05:34:39.932Z,15.30
2019-05-09T05:37:08.877Z,14.90
2019-05-09T05:39:37.718Z,14.70
2019-05-09T05:42:08.304Z,14.50
2019-05-09T05:44:38.616Z,14.30
2019-05-09T05:47:15.019Z,13.90
2019-05-09T05:49:43.927Z,13.80
2019-05-09T05:52:12.914Z,13.90
2019-05-09T05:54:41.807Z,13.90
2019-05-09T05:57:10.741Z,13.90
2019-05-09T05:59:41.866Z,13.90
2019-05-09T06:02:10.781Z,13.90
2019-05-09T06:04:39.553Z,13.80
2019-05-09T06:07:08.452Z,13.80
2019-05-09T06:09:38.038Z,13.90
2019-05-09T06:12:08.286Z,13.80
2019-05-09T06:14:37.785Z,13.70
2019-05-09T06:17:07.992Z,13.70
2019-05-09T06:19:37.944Z,13.50
2019-05-09T06:22:08.405Z,13.60
2019-05-09T06:24:38.634Z,13.80
2019-05-09T06:27:10.438Z,13.80
2019-05-09T06:29:38.922Z,14.00
2019-05-09T06:32:08.153Z,14.00
2019-05-09T06:34:41.906Z,14.00
2019-05-09T06:37:08.902Z,14.10
2019-05-09T06:39:38.546Z,14.30
2019-05-09T06:42:08.984Z,14.30
2019-05-09T06:44:39.586Z,14.30
2019-05-09T06:47:14.102Z,14.20
2019-05-09T06:49:44.700Z,14.20
2019-05-09T06:52:13.677Z,14.10
2019-05-09T06:54:42.530Z,14.50
2019-05-09T06:57:12.032Z,14.50
2019-05-09T06:59:40.974Z,14.50
2019-05-09T07:02:20.500Z,14.60
2019-05-09T07:04:51.045Z,14.60
2019-05-09T07:07:24.637Z,14.40
2019-05-09T07:09:58.590Z,14.40
2019-05-09T07:12:44.605Z,14.20
2019-05-09T07:15:14.231Z,14.10
2019-05-09T07:17:44.716Z,14.30
2019-05-09T07:20:13.757Z,14.40
2019-05-09T07:22:48.183Z,14.40
2019-05-09T07:25:18.801Z,14.30
2019-05-09T07:27:48.358Z,14.40
2019-05-09T07:30:23.688Z,14.50
2019-05-09T07:32:54.507Z,14.50
2019-05-09T07:35:23.369Z,14.60
2019-05-09T07:37:52.278Z,14.60
2019-05-09T07:40:21.291Z,14.60
2019-05-09T07:42:52.787Z,14.60
2019-05-09T07:45:21.674Z,14.50
2019-05-09T07:47:50.603Z,14.50
2019-05-09T07:50:19.518Z,14.60
2019-05-09T07:52:48.428Z,14.70
2019-05-09T07:55:17.998Z,15.00
2019-05-09T07:57:54.980Z,15.00
2019-05-09T08:00:22.493Z,15.10
2019-05-09T08:02:51.941Z,15.30
2019-05-09T08:05:28.725Z,15.10
2019-05-09T08:07:58.654Z,15.30
2019-05-09T08:10:30.636Z,15.40
2019-05-09T08:12:58.684Z,15.20
2019-05-09T08:15:28.173Z,15.20
2019-05-09T08:17:59.090Z,15.50
2019-05-09T08:20:28.968Z,15.40
2019-05-09T08:23:01.560Z,15.40
2019-05-09T08:25:30.386Z,15.10
2019-05-09T08:27:59.298Z,15.20
2019-05-09T08:30:35.534Z,15.00
2019-05-09T08:32:59.917Z,14.80
2019-05-09T08:35:28.897Z,14.70
2019-05-09T08:37:58.461Z,15.00
2019-05-09T08:40:28.471Z,15.00
2019-05-09T08:42:58.881Z,14.90
2019-05-09T08:45:31.311Z,15.00
2019-05-09T08:47:58.511Z,15.40
2019-05-09T08:50:32.137Z,15.30
2019-05-09T08:53:01.031Z,15.30
2019-05-09T08:55:29.986Z,15.40
2019-05-09T08:57:58.868Z,15.40
2019-05-09T09:00:28.244Z,15.40
2019-05-09T09:02:57.547Z,15.30
2019-05-09T09:05:28.656Z,15.40
2019-05-09T09:07:59.268Z,15.30
2019-05-09T09:10:28.904Z,15.40
2019-05-09T09:12:58.414Z,15.50
2019-05-09T09:15:55.894Z,15.50
2019-05-09T09:17:59.327Z,15.70
2019-05-09T09:20:29.590Z,16.10
2019-05-09T09:22:58.578Z,16.10
2019-05-09T09:25:28.662Z,16.00
2019-05-09T09:27:59.602Z,16.30
2019-05-09T09:30:31.511Z,16.10
2019-05-09T09:33:00.321Z,16.00
2019-05-09T09:35:29.171Z,15.90
2019-05-09T09:37:58.281Z,16.00
2019-05-09T09:40:27.892Z,15.90
2019-05-09T09:42:58.503Z,16.00
2019-05-09T09:45:28.064Z,16.00
2019-05-09T09:47:59.090Z,16.10
2019-05-09T09:50:28.072Z,16.20
2019-05-09T09:52:58.944Z,16.00
2019-05-09T09:55:27.926Z,16.00
2019-05-09T09:57:57.832Z,16.10
2019-05-09T10:01:03.674Z,16.20
2019-05-09T10:03:34.019Z,16.10
2019-05-09T10:06:02.938Z,15.90
2019-05-09T10:08:31.831Z,15.90
2019-05-09T10:11:00.667Z,16.50
2019-05-09T10:13:29.519Z,17.10
2019-05-09T10:16:26.589Z,17.10
2019-05-09T10:18:50.166Z,17.10
2019-05-09T10:21:23.565Z,17.50
2019-05-09T10:23:52.473Z,17.40
2019-05-09T10:26:21.450Z,17.60
2019-05-09T10:28:51.039Z,17.40
2019-05-09T10:31:19.869Z,17.20
2019-05-09T10:33:48.922Z,17.20
2019-05-09T10:36:17.857Z,17.10
2019-05-09T10:38:48.155Z,17.20
2019-05-09T10:41:19.634Z,17.40
2019-05-09T10:43:52.573Z,17.40
2019-05-09T10:46:48.316Z,17.70
2019-05-09T10:49:04.076Z,18.00
2019-05-09T10:51:34.417Z,17.80
2019-05-09T10:54:03.301Z,17.90
2019-05-09T10:56:32.264Z,18.00
2019-05-09T10:59:01.302Z,18.00
2019-05-09T11:01:30.746Z,17.70
2019-05-09T11:03:59.741Z,17.70
2019-05-09T11:09:22.010Z,17.80
2019-05-09T11:11:50.964Z,17.90
2019-05-09T11:14:32.693Z,18.00
2019-05-09T11:17:06.832Z,18.10
2019-05-09T11:19:24.086Z,18.20
2019-05-09T11:21:53.031Z,18.50
2019-05-09T11:24:37.796Z,18.60
2019-05-09T11:26:52.405Z,18.60
2019-05-09T11:29:21.402Z,18.20
2019-05-09T11:31:50.307Z,18.20
2019-05-09T11:34:19.142Z,18.10
2019-05-09T11:36:49.804Z,18.30
2019-05-09T11:39:35.075Z,18.40
2019-05-09T11:41:49.036Z,18.70
2019-05-09T11:44:18.440Z,18.80
2019-05-09T11:46:47.766Z,18.90
2019-05-09T11:49:18.049Z,18.80
2019-05-09T11:51:48.213Z,18.70
2019-05-09T11:54:19.363Z,18.50
2019-05-09T11:56:48.193Z,18.50
2019-05-09T11:59:18.959Z,18.20
2019-05-09T12:01:48.272Z,18.30
2019-05-09T12:04:18.674Z,18.30
2019-05-09T12:06:51.451Z,18.00
2019-05-09T12:09:23.149Z,18.10
2019-05-09T12:11:51.937Z,18.00
2019-05-09T12:14:20.838Z,18.10
2019-05-09T12:16:53.621Z,18.10
2019-05-09T12:19:24.037Z,18.10
2019-05-09T12:21:53.907Z,18.30
2019-05-09T12:24:22.970Z,18.30
2019-05-09T12:26:53.341Z,18.20
2019-05-09T12:29:22.112Z,18.20
2019-05-09T12:31:51.013Z,18.20
2019-05-09T12:34:19.967Z,18.00
2019-05-09T12:36:49.767Z,18.10
2019-05-09T12:39:19.123Z,18.40
2019-05-09T12:41:48.544Z,18.60
2019-05-09T12:44:18.404Z,19.00
2019-05-09T12:46:48.800Z,19.10
2019-05-09T12:49:19.025Z,19.20
2019-05-09T12:51:48.233Z,19.40
2019-05-09T12:54:18.990Z,19.60
2019-05-09T12:56:48.575Z,19.60
2019-05-09T12:59:18.748Z,19.70
2019-05-09T13:01:49.176Z,19.90
2019-05-09T13:04:18.673Z,19.70
2019-05-09T13:06:48.799Z,19.60
2019-05-09T13:09:18.262Z,19.60
2019-05-09T13:11:48.419Z,19.90
2019-05-09T13:14:19.259Z,19.80
2019-05-09T13:17:00.053Z,20.00
2019-05-09T13:19:39.095Z,19.70
2019-05-09T13:22:09.303Z,19.70
2019-05-09T13:24:38.097Z,20.00
2019-05-09T13:27:07.836Z,20.20
2019-05-09T13:29:38.169Z,20.40
2019-05-09T13:32:08.730Z,20.50
2019-05-09T13:34:38.241Z,20.70
2019-05-09T13:37:09.170Z,20.50
2019-05-09T13:39:39.669Z,20.40
2019-05-09T13:42:08.457Z,20.40
2019-05-09T13:44:41.240Z,20.30
2019-05-09T13:47:10.610Z,20.40
2019-05-09T13:49:39.652Z,20.50
2019-05-09T13:52:10.192Z,20.30
2019-05-09T13:54:41.487Z,20.40
2019-05-09T13:57:10.419Z,20.50
2019-05-09T13:59:41.920Z,20.50
2019-05-09T14:02:10.814Z,20.10
2019-05-09T14:04:39.882Z,20.20
2019-05-09T14:07:08.883Z,20.50
2019-05-09T14:09:38.489Z,20.70
2019-05-09T14:12:09.283Z,20.90
2019-05-09T14:14:38.861Z,20.90
2019-05-09T14:17:08.514Z,20.90
2019-05-09T14:19:45.725Z,20.80
2019-05-09T14:22:09.657Z,20.60
2019-05-09T14:24:40.050Z,20.70
2019-05-09T14:27:08.978Z,20.80
2019-05-09T14:29:38.361Z,20.90
2019-05-09T14:32:07.423Z,20.90
2019-05-09T14:34:39.022Z,20.90
2019-05-09T14:37:09.836Z,20.90
2019-05-09T14:39:54.488Z,20.80
2019-05-09T14:42:10.023Z,20.80
2019-05-09T14:44:41.046Z,20.50
2019-05-09T14:47:11.228Z,20.60
2019-05-09T14:49:44.232Z,20.60
2019-05-09T14:52:11.972Z,20.30
2019-05-09T14:54:43.859Z,20.60
2019-05-09T14:57:12.679Z,20.50
2019-05-09T14:59:41.632Z,20.40
2019-05-09T15:02:10.526Z,20.50
2019-05-09T15:04:40.975Z,20.70
2019-05-09T15:07:09.859Z,20.90
2019-05-09T15:09:42.823Z,20.90
2019-05-09T15:12:11.715Z,20.90
2019-05-09T15:14:42.458Z,21.10
2019-05-09T15:17:12.446Z,21.20
2019-05-09T15:19:56.505Z,21.50
2019-05-09T15:22:11.771Z,21.60
2019-05-09T15:24:40.777Z,21.60
2019-05-09T15:27:10.948Z,21.70
2019-05-09T15:29:42.861Z,21.10
2019-05-09T15:32:14.690Z,21.00
2019-05-09T15:34:43.547Z,21.00
2019-05-09T15:37:12.449Z,20.80
2019-05-09T15:39:41.359Z,20.60
2019-05-09T15:42:10.386Z,20.50
2019-05-09T15:44:39.192Z,20.60
2019-05-09T15:47:24.537Z,20.90
2019-05-09T15:49:57.951Z,21.00
2019-05-09T15:52:28.598Z,21.00
2019-05-09T15:54:58.028Z,21.00
2019-05-09T15:57:27.517Z,21.00
2019-05-09T15:59:58.782Z,21.10
2019-05-09T16:02:28.318Z,20.90
2019-05-09T16:04:58.351Z,20.90
2019-05-09T16:07:28.518Z,21.00
2019-05-09T16:09:58.128Z,21.00
2019-05-09T16:12:28.193Z,20.90
2019-05-09T16:14:57.069Z,20.90
2019-05-09T16:17:28.458Z,20.80
2019-05-09T16:19:59.246Z,21.00
2019-05-09T16:22:29.663Z,21.00
2019-05-09T16:24:58.549Z,20.90
2019-05-09T16:27:29.918Z,20.70
2019-05-09T16:29:58.715Z,20.60
2019-05-09T16:32:27.459Z,20.50
2019-05-09T16:34:56.276Z,20.40
2019-05-09T16:37:25.034Z,20.30
2019-05-09T16:39:53.807Z,20.20
2019-05-09T16:42:22.642Z,20.10
2019-05-09T16:44:51.718Z,20.10
2019-05-09T16:47:22.444Z,20.10
2019-05-09T16:49:51.527Z,20.10
2019-05-09T16:52:20.572Z,20.10
2019-05-09T16:54:51.002Z,20.00
2019-05-09T16:57:19.663Z,20.00
2019-05-09T16:59:48.543Z,20.00
2019-05-09T17:02:23.996Z,20.00
2019-05-09T17:04:47.859Z,19.70
2019-05-09T17:07:18.496Z,19.70
2019-05-09T17:09:48.469Z,19.80
2019-05-09T17:12:18.653Z,19.80
2019-05-09T17:14:47.568Z,19.70
2019-05-09T17:17:17.812Z,19.70
2019-05-09T17:19:48.094Z,19.80
2019-05-09T17:22:18.738Z,19.80
2019-05-09T17:24:48.515Z,19.80
2019-05-09T17:27:18.863Z,19.60
2019-05-09T17:29:48.187Z,19.60
2019-05-09T17:32:20.376Z,19.50
2019-05-09T17:34:49.518Z,19.40
2019-05-09T17:37:19.561Z,19.40
2019-05-09T17:39:48.553Z,19.40
2019-05-09T17:42:35.394Z,19.30
2019-05-09T17:45:05.180Z,19.20
2019-05-09T17:47:34.140Z,19.30
2019-05-09T17:50:03.141Z,19.40
2019-05-09T17:52:35.109Z,19.40
2019-05-09T17:55:04.034Z,19.40
2019-05-09T17:57:32.996Z,19.30
2019-05-09T18:00:01.926Z,19.20
2019-05-09T18:02:30.780Z,19.20
2019-05-09T18:05:20.593Z,19.10
2019-05-09T18:14:18.438Z,19.00
2019-05-09T18:16:50.820Z,18.90
2019-05-09T18:19:19.776Z,18.90
2019-05-09T18:24:39.132Z,18.90
2019-05-09T18:29:58.300Z,18.80
2019-05-09T18:32:49.653Z,18.70
2019-05-09T18:35:27.860Z,18.60
2019-05-09T18:37:58.830Z,18.50
2019-05-09T18:40:28.829Z,18.50
2019-05-09T18:42:58.386Z,18.50
2019-05-09T18:45:29.585Z,18.50
2019-05-09T18:47:59.546Z,18.50
2019-05-09T18:50:28.479Z,18.40
2019-05-09T18:52:57.299Z,18.40
2019-05-09T18:55:26.234Z,18.40
2019-05-09T18:57:55.187Z,18.40
2019-05-09T19:03:46.793Z,18.40
2019-05-09T19:06:15.660Z,18.40
2019-05-09T19:08:46.569Z,18.40
2019-05-09T19:11:16.001Z,18.40
2019-05-09T19:13:44.953Z,18.30
2019-05-09T19:16:16.764Z,18.30
2019-05-09T19:18:54.343Z,18.40
2019-05-09T19:21:47.281Z,18.40
2019-05-09T19:24:24.904Z,18.30
2019-05-09T19:27:01.269Z,18.30
2019-05-09T19:29:30.220Z,18.30
2019-05-09T19:31:59.221Z,18.30
2019-05-09T19:37:59.593Z,18.20
2019-05-09T19:40:28.625Z,18.20
2019-05-09T19:46:41.137Z,18.10
2019-05-09T19:52:38.886Z,18.00
2019-05-09T19:55:10.711Z,17.90
2019-05-09T20:25:52.138Z,17.60
2019-05-09T20:28:29.969Z,17.60
2019-05-09T20:31:01.890Z,17.50
2019-05-09T20:33:40.922Z,17.50
2019-05-09T20:36:09.861Z,17.30
2019-05-09T20:38:39.099Z,17.20
2019-05-09T20:41:09.603Z,17.20
2019-05-09T20:43:40.217Z,17.30
2019-05-09T20:46:10.475Z,17.30
2019-05-09T20:48:39.836Z,17.20
2019-05-09T20:51:08.998Z,17.30
2019-05-09T20:53:38.123Z,17.20
2019-05-09T20:56:07.846Z,17.20
2019-05-09T20:58:37.008Z,17.20
2019-05-09T21:01:06.058Z,17.20
2019-05-09T21:15:27.930Z,17.30
2019-05-09T21:18:09.623Z,17.20
2019-05-09T21:20:39.250Z,17.00
2019-05-09T21:23:22.743Z,17.00
2019-05-09T21:25:39.157Z,17.10
2019-05-09T21:28:08.352Z,17.10
2019-05-09T21:30:37.440Z,17.10
2019-05-09T21:33:06.602Z,17.20
2019-05-09T21:35:35.594Z,17.20
2019-05-09T21:38:04.601Z,17.20
2019-05-09T21:40:33.532Z,17.00
2019-05-09T21:43:02.567Z,16.80
2019-05-09T21:45:31.584Z,16.90
2019-05-09T21:48:00.556Z,16.90
2019-05-09T21:50:29.475Z,16.80
2019-05-09T21:52:58.464Z,16.70
2019-05-09T21:55:27.403Z,16.70
2019-05-09T21:57:56.326Z,16.80
2019-05-09T22:00:32.492Z,16.70
2019-05-09T22:03:01.505Z,16.90
2019-05-09T22:05:30.441Z,17.00
2019-05-09T22:07:59.359Z,17.00
2019-05-09T22:10:29.302Z,17.00
2019-05-09T22:12:58.180Z,16.80
2019-05-09T22:15:27.120Z,16.70
2019-05-09T22:17:56.031Z,16.70
2019-05-09T22:20:24.988Z,16.60
2019-05-09T22:22:53.913Z,16.50
2019-05-09T22:25:22.761Z,16.40
2019-05-09T22:27:51.691Z,16.30
2019-05-09T22:30:21.421Z,16.30
2019-05-09T22:32:50.273Z,16.30
2019-05-09T22:35:19.204Z,16.30
2019-05-09T22:37:48.096Z,16.40
2019-05-09T22:40:17.251Z,16.30
2019-05-09T22:42:46.173Z,16.30
2019-05-09T22:45:15.563Z,16.30
2019-05-09T22:47:44.417Z,16.30
2019-05-09T22:50:13.575Z,16.40
2019-05-09T22:52:42.526Z,16.30
2019-05-09T22:55:11.769Z,16.30
2019-05-09T22:57:40.715Z,16.30
2019-05-09T23:00:10.136Z,16.30
2019-05-09T23:02:39.056Z,16.30
2019-05-09T23:05:07.999Z,16.30
2019-05-09T23:07:36.938Z,16.30
2019-05-09T23:10:07.460Z,16.40
2019-05-09T23:12:36.359Z,16.30
2019-05-09T23:15:07.553Z,16.40
2019-05-09T23:17:36.891Z,16.40
2019-05-09T23:20:09.288Z,16.30
2019-05-09T23:22:38.281Z,16.30
2019-05-09T23:25:09.212Z,16.30
2019-05-09T23:27:38.210Z,16.30
2019-05-09T23:30:08.701Z,16.30
2019-05-09T23:32:41.841Z,16.30
2019-05-09T23:35:11.063Z,16.20
2019-05-09T23:37:40.022Z,16.20
2019-05-09T23:40:09.171Z,16.10
2019-05-09T23:42:38.022Z,16.10
2019-05-09T23:45:07.550Z,16.00
2019-05-09T23:47:36.494Z,15.90
2019-05-09T23:50:07.230Z,15.90
2019-05-09T23:52:36.156Z,15.90
2019-05-09T23:55:23.263Z,15.90
2019-05-09T23:58:09.685Z,15.80
